Time,TemperatureF,DewpointF,PressureIn,WindDirection,WindDirectionDegrees,WindSpeedMPH,WindSpeedGustMPH,Humidity,HourlyPrecipIn,Conditions,Clouds,dailyrainin,SoftwareType,DateUTC
2013-06-04 00:07:00,39.6,34.9,30.01,NNE,22,3.2,-999.0,83,-99.99,,,0.00,Acu-Link.com,2013-06-04 04:07:00,
2013-06-04 00:22:00,39.0,34.3,30.02,NNE,22,2.7,-999.0,83,-99.99,,,0.00,Acu-Link.com,2013-06-04 04:22:00,
2013-06-04 00:37:00,39.0,34.6,30.03,NNE,22,4.2,-999.0,84,-99.99,,,0.00,Acu-Link.com,2013-06-04 04:37:00,
2013-06-04 00:52:00,38.8,35.3,30.03,NNE,22,3.7,-999.0,87,-99.99,,,0.00,Acu-Link.com,2013-06-04 04:52:00,
2013-06-04 01:07:00,38.1,34.6,30.03,NNE,22,3.2,-999.0,87,-99.99,,,0.00,Acu-Link.com,2013-06-04 05:07:00,
2013-06-04 01:23:00,37.8,34.0,30.03,NNE,22,3.2,-999.0,86,-99.99,,,0.00,Acu-Link.com,2013-06-04 05:23:00,
2013-06-04 01:38:00,37.6,34.1,30.03,NNE,22,3.7,-999.0,87,-99.99,,,0.00,Acu-Link.com,2013-06-04 05:38:00,
2013-06-04 01:53:00,37.6,33.8,30.03,NNE,22,3.7,-999.0,86,-99.99,,,0.00,Acu-Link.com,2013-06-04 05:53:00,
2013-06-04 02:08:00,37.0,34.1,30.03,NNE,22,3.2,-999.0,89,-99.99,,,0.00,Acu-Link.com,2013-06-04 06:08:00,
2013-06-04 02:46:00,36.9,34.5,30.03,NNE,22,3.7,-999.0,91,-99.99,,,0.00,Acu-Link.com,2013-06-04 06:46:00,
2013-06-04 03:01:00,35.8,32.9,30.03,NNE,22,3.2,-999.0,89,-99.99,,,0.00,Acu-Link.com,2013-06-04 07:01:00,
2013-06-04 03:31:00,35.6,33.0,30.03,NNE,22,4.2,-999.0,90,-99.99,,,0.00,Acu-Link.com,2013-06-04 07:31:00,
2013-06-04 03:47:00,35.6,32.4,30.04,NNE,22,3.7,-999.0,88,-99.99,,,0.00,Acu-Link.com,2013-06-04 07:47:00,
2013-06-04 04:02:00,35.6,33.0,30.03,NNE,22,4.2,-999.0,90,-99.99,,,0.00,Acu-Link.com,2013-06-04 08:02:00,
2013-06-04 04:17:00,35.6,33.2,30.03,NNE,22,3.7,-999.0,91,-99.99,,,0.00,Acu-Link.com,2013-06-04 08:17:00,
2013-06-04 04:33:00,35.2,32.6,30.04,NNE,22,3.7,-999.0,90,-99.99,,,0.00,Acu-Link.com,2013-06-04 08:33:00,
2013-06-04 04:48:00,35.2,32.6,30.04,NNE,22,3.2,-999.0,90,-99.99,,,0.00,Acu-Link.com,2013-06-04 08:48:00,
2013-06-04 05:03:00,36.3,31.9,30.04,NNE,22,3.2,-999.0,84,-99.99,,,0.00,Acu-Link.com,2013-06-04 09:03:00,
2013-06-04 05:19:00,35.8,32.3,30.04,NNE,22,3.7,-999.0,87,-99.99,,,0.00,Acu-Link.com,2013-06-04 09:19:00,
2013-06-04 05:34:00,34.3,30.8,30.05,NNE,22,3.2,-999.0,87,-99.99,,,0.00,Acu-Link.com,2013-06-04 09:34:00,
2013-06-04 05:49:00,34.3,31.4,30.06,NNE,22,3.2,-999.0,89,-99.99,,,0.00,Acu-Link.com,2013-06-04 09:49:00,
2013-06-04 06:04:00,34.3,31.7,30.07,NNE,22,3.2,-999.0,90,-99.99,,,0.00,Acu-Link.com,2013-06-04 10:04:00,
2013-06-04 06:19:00,35.1,32.5,30.07,NNE,22,3.2,-999.0,90,-99.99,,,0.00,Acu-Link.com,2013-06-04 10:19:00,
2013-06-04 06:34:00,36.3,32.5,30.08,NNE,22,3.7,-999.0,86,-99.99,,,0.00,Acu-Link.com,2013-06-04 10:34:00,
2013-06-04 06:49:00,38.3,34.2,30.08,NNE,22,3.7,-999.0,85,-99.99,,,0.00,Acu-Link.com,2013-06-04 10:49:00,
2013-06-04 07:04:00,40.5,34.5,30.08,NNE,22,3.2,-999.0,79,-99.99,,,0.00,Acu-Link.com,2013-06-04 11:04:00,
2013-06-04 07:19:00,42.3,36.3,30.08,NNE,22,3.2,-999.0,79,-99.99,,,0.00,Acu-Link.com,2013-06-04 11:19:00,
2013-06-04 07:35:00,43.2,37.1,30.08,NNE,22,2.7,-999.0,79,-99.99,,,0.00,Acu-Link.com,2013-06-04 11:35:00,
2013-06-04 07:50:00,47.8,38.9,30.09,NNE,22,2.2,-999.0,71,-99.99,,,0.00,Acu-Link.com,2013-06-04 11:50:00,
2013-06-04 08:05:00,55.0,40.9,30.09,NNE,22,2.7,-999.0,59,-99.99,,,0.00,Acu-Link.com,2013-06-04 12:05:00,
2013-06-04 08:20:00,50.7,41.3,30.10,NNE,22,3.7,-999.0,70,-99.99,,,0.00,Acu-Link.com,2013-06-04 12:20:00,
2013-06-04 08:36:00,50.4,41.0,30.10,NNE,22,4.2,-999.0,70,-99.99,,,0.00,Acu-Link.com,2013-06-04 12:36:00,
2013-06-04 09:06:00,55.8,43.0,30.10,NNE,22,0.0,-999.0,62,-99.99,,,0.00,Acu-Link.com,2013-06-04 13:06:00,
2013-06-04 09:22:00,50.5,41.1,30.10,NNE,22,2.7,-999.0,70,-99.99,,,0.00,Acu-Link.com,2013-06-04 13:22:00,
2013-06-04 09:37:00,50.4,42.1,30.10,NNE,22,2.2,-999.0,73,-99.99,,,0.00,Acu-Link.com,2013-06-04 13:37:00,
2013-06-04 09:52:00,50.9,42.6,30.09,NNE,22,3.2,-999.0,73,-99.99,,,0.00,Acu-Link.com,2013-06-04 13:52:00,
2013-06-04 10:08:00,51.3,43.3,30.09,NNE,22,2.7,-999.0,74,-99.99,,,0.00,Acu-Link.com,2013-06-04 14:08:00,
2013-06-04 10:23:00,48.9,41.3,30.10,NNE,22,2.7,-999.0,75,-99.99,,,0.00,Acu-Link.com,2013-06-04 14:23:00,
2013-06-04 10:38:00,49.8,41.1,30.10,NNE,22,2.2,-999.0,72,-99.99,,,0.00,Acu-Link.com,2013-06-04 14:38:00,
2013-06-04 10:53:00,51.4,38.4,30.09,NNE,22,1.7,-999.0,61,-99.99,,,0.00,Acu-Link.com,2013-06-04 14:53:00,
2013-06-04 11:09:00,52.2,36.1,30.10,NNE,22,3.2,-999.0,54,-99.99,,,0.00,Acu-Link.com,2013-06-04 15:09:00,
2013-06-04 11:24:00,51.8,36.6,30.10,NNE,22,3.7,-999.0,56,-99.99,,,0.00,Acu-Link.com,2013-06-04 15:24:00,
2013-06-04 11:39:00,51.1,40.5,30.11,NNE,22,3.7,-999.0,67,-99.99,,,0.00,Acu-Link.com,2013-06-04 15:39:00,
2013-06-04 11:55:00,51.4,36.7,30.11,NNE,22,2.7,-999.0,57,-99.99,,,0.00,Acu-Link.com,2013-06-04 15:55:00,
2013-06-04 12:10:00,53.1,32.3,30.11,NNE,22,2.7,-999.0,45,-99.99,,,0.00,Acu-Link.com,2013-06-04 16:10:00,
2013-06-04 12:25:00,53.8,33.5,30.11,NNE,22,2.2,-999.0,46,-99.99,,,0.00,Acu-Link.com,2013-06-04 16:25:00,
2013-06-04 12:40:00,56.1,37.2,30.11,NNE,22,3.7,-999.0,49,-99.99,,,0.00,Acu-Link.com,2013-06-04 16:40:00,
2013-06-04 12:55:00,53.1,35.0,30.12,NNE,22,2.7,-999.0,50,-99.99,,,0.00,Acu-Link.com,2013-06-04 16:55:00,
2013-06-04 13:11:00,53.1,36.4,30.13,NNE,22,2.7,-999.0,53,-99.99,,,0.00,Acu-Link.com,2013-06-04 17:11:00,
2013-06-04 13:26:00,52.0,34.4,30.12,NNE,22,3.2,-999.0,51,-99.99,,,0.00,Acu-Link.com,2013-06-04 17:26:00,
2013-06-04 13:41:00,55.0,34.6,30.12,NNE,22,2.7,-999.0,46,-99.99,,,0.00,Acu-Link.com,2013-06-04 17:41:00,
2013-06-04 13:57:00,53.8,35.6,30.12,NNE,22,2.7,-999.0,50,-99.99,,,0.00,Acu-Link.com,2013-06-04 17:57:00,
2013-06-04 14:12:00,54.5,37.2,30.11,NNE,22,3.2,-999.0,52,-99.99,,,0.00,Acu-Link.com,2013-06-04 18:12:00,
2013-06-04 14:27:00,53.6,36.4,30.10,NNE,22,4.7,-999.0,52,-99.99,,,0.00,Acu-Link.com,2013-06-04 18:27:00,
2013-06-04 14:43:00,52.3,39.3,30.10,NNE,22,3.2,-999.0,61,-99.99,,,0.00,Acu-Link.com,2013-06-04 18:43:00,
2013-06-04 14:58:00,50.9,37.5,30.10,NNE,22,2.7,-999.0,60,-99.99,,,0.00,Acu-Link.com,2013-06-04 18:58:00,
2013-06-04 15:13:00,53.4,36.2,30.10,NNE,22,1.1,-999.0,52,-99.99,,,0.00,Acu-Link.com,2013-06-04 19:13:00,
2013-06-04 15:28:00,51.6,36.0,30.10,NNE,22,3.2,-999.0,55,-99.99,,,0.00,Acu-Link.com,2013-06-04 19:28:00,
2013-06-04 15:44:00,53.8,35.1,30.10,WNW,292,3.7,-999.0,49,-99.99,,,0.00,Acu-Link.com,2013-06-04 19:44:00,
2013-06-04 15:59:00,53.1,33.9,30.09,WNW,292,2.7,-999.0,48,-99.99,,,0.00,Acu-Link.com,2013-06-04 19:59:00,
2013-06-04 16:14:00,54.1,33.2,30.09,East,90,2.2,-999.0,45,-99.99,,,0.00,Acu-Link.com,2013-06-04 20:14:00,
2013-06-04 16:29:00,53.2,33.5,30.09,NNW,337,2.7,-999.0,47,-99.99,,,0.00,Acu-Link.com,2013-06-04 20:29:00,
2013-06-04 16:44:00,54.7,34.9,30.09,NNW,337,0.0,-999.0,47,-99.99,,,0.00,Acu-Link.com,2013-06-04 20:44:00,
2013-06-04 17:00:00,53.1,35.0,30.08,NNW,337,4.7,-999.0,50,-99.99,,,0.00,Acu-Link.com,2013-06-04 21:00:00,
2013-06-04 17:15:00,52.9,34.8,30.09,NNW,337,2.2,-999.0,50,-99.99,,,0.00,Acu-Link.com,2013-06-04 21:15:00,
2013-06-04 17:30:00,52.0,32.9,30.08,NNE,22,2.7,-999.0,48,-99.99,,,0.00,Acu-Link.com,2013-06-04 21:30:00,
2013-06-04 17:45:00,51.3,34.8,30.08,NNE,22,4.2,-999.0,53,-99.99,,,0.00,Acu-Link.com,2013-06-04 21:45:00,
2013-06-04 18:00:00,51.3,35.7,30.08,NNE,22,3.7,-999.0,55,-99.99,,,0.00,Acu-Link.com,2013-06-04 22:00:00,
2013-06-04 18:16:00,53.4,34.7,30.08,NNE,22,3.7,-999.0,49,-99.99,,,0.00,Acu-Link.com,2013-06-04 22:16:00,
2013-06-04 18:31:00,53.2,35.0,30.08,NNE,22,3.2,-999.0,50,-99.99,,,0.00,Acu-Link.com,2013-06-04 22:31:00,
2013-06-04 18:46:00,52.5,34.4,30.08,NNE,22,2.7,-999.0,50,-99.99,,,0.00,Acu-Link.com,2013-06-04 22:46:00,
2013-06-04 19:01:00,51.3,34.3,30.08,NNE,22,3.7,-999.0,52,-99.99,,,0.00,Acu-Link.com,2013-06-04 23:01:00,
2013-06-04 19:16:00,50.2,37.3,30.08,NNE,22,2.2,-999.0,61,-99.99,,,0.00,Acu-Link.com,2013-06-04 23:16:00,
2013-06-04 19:32:00,49.8,36.9,30.08,NNE,22,3.2,-999.0,61,-99.99,,,0.00,Acu-Link.com,2013-06-04 23:32:00,
2013-06-04 19:47:00,49.6,37.5,30.08,NNE,22,3.7,-999.0,63,-99.99,,,0.00,Acu-Link.com,2013-06-04 23:47:00,
2013-06-04 20:02:00,50.0,39.9,30.09,NNE,22,3.2,-999.0,68,-99.99,,,0.00,Acu-Link.com,2013-06-05 00:02:00,
2013-06-04 20:17:00,49.5,37.8,30.09,NNE,22,1.1,-999.0,64,-99.99,,,0.00,Acu-Link.com,2013-06-05 00:17:00,
2013-06-04 20:33:00,49.3,36.0,30.08,NNE,22,2.7,-999.0,60,-99.99,,,0.00,Acu-Link.com,2013-06-05 00:33:00,
2013-06-04 20:49:00,49.1,36.2,30.08,NNE,22,0.0,-999.0,61,-99.99,,,0.00,Acu-Link.com,2013-06-05 00:49:00,
2013-06-04 21:04:00,48.9,37.3,30.08,NNE,22,0.0,-999.0,64,-99.99,,,0.00,Acu-Link.com,2013-06-05 01:04:00,
2013-06-04 21:19:00,48.7,37.1,30.08,NNE,22,0.0,-999.0,64,-99.99,,,0.00,Acu-Link.com,2013-06-05 01:19:00,
2013-06-04 21:34:00,48.4,39.4,30.08,NNE,22,0.0,-999.0,71,-99.99,,,0.00,Acu-Link.com,2013-06-05 01:34:00,
2013-06-04 21:49:00,48.6,39.6,30.09,NNE,22,0.0,-999.0,71,-99.99,,,0.00,Acu-Link.com,2013-06-05 01:49:00,
2013-06-04 22:05:00,48.4,39.1,30.09,NNE,22,0.0,-999.0,70,-99.99,,,0.00,Acu-Link.com,2013-06-05 02:05:00,
2013-06-04 22:20:00,48.2,38.5,30.08,NNE,22,3.2,-999.0,69,-99.99,,,0.00,Acu-Link.com,2013-06-05 02:20:00,
2013-06-04 22:35:00,47.5,39.3,30.09,NNE,22,3.7,-999.0,73,-99.99,,,0.00,Acu-Link.com,2013-06-05 02:35:00,
2013-06-04 22:51:00,47.1,39.2,30.09,NNE,22,0.0,-999.0,74,-99.99,,,0.00,Acu-Link.com,2013-06-05 02:51:00,
2013-06-04 23:06:00,46.9,38.0,30.09,NNE,22,0.0,-999.0,71,-99.99,,,0.00,Acu-Link.com,2013-06-05 03:06:00,
2013-06-04 23:21:00,46.9,39.4,30.09,NNE,22,0.0,-999.0,75,-99.99,,,0.00,Acu-Link.com,2013-06-05 03:21:00,
2013-06-04 23:37:00,46.6,38.4,30.08,NNE,22,0.0,-999.0,73,-99.99,,,0.00,Acu-Link.com,2013-06-05 03:37:00,
2013-06-04 23:52:00,46.8,39.6,30.09,NNE,22,0.0,-999.0,76,-99.99,,,0.00,Acu-Link.com,2013-06-05 03:52:00,